createdAt,value
2022-11-02T00:00:15.063Z,100.00
2022-11-02T00:03:36.592Z,100.00
2022-11-02T00:06:58.295Z,100.00
2022-11-02T00:10:15.095Z,100.00
2022-11-02T00:13:16.935Z,100.00
2022-11-02T00:16:19.990Z,100.00
2022-11-02T00:19:21.771Z,100.00
2022-11-02T00:22:24.066Z,100.00
2022-11-02T00:25:26.835Z,100.00
2022-11-02T00:28:29.198Z,100.00
2022-11-02T00:31:33.897Z,100.00
2022-11-02T00:34:35.555Z,100.00
2022-11-02T00:37:37.670Z,100.00
2022-11-02T00:40:39.504Z,100.00
2022-11-02T00:43:41.229Z,100.00
2022-11-02T00:46:42.881Z,100.00
2022-11-02T00:49:44.573Z,100.00
2022-11-02T00:52:46.364Z,100.00
2022-11-02T00:55:48.084Z,100.00
2022-11-02T00:58:49.879Z,100.00
2022-11-02T01:01:51.831Z,100.00
2022-11-02T01:04:56.683Z,100.00
2022-11-02T01:07:58.546Z,100.00
2022-11-02T01:11:19.318Z,100.00
2022-11-02T01:14:21.711Z,100.00
2022-11-02T01:17:23.464Z,100.00
2022-11-02T01:20:25.512Z,100.00
2022-11-02T01:23:27.436Z,100.00
2022-11-02T01:26:29.215Z,100.00
2022-11-02T01:29:30.898Z,100.00
2022-11-02T01:32:32.722Z,100.00
2022-11-02T01:35:37.002Z,100.00
2022-11-02T01:38:38.725Z,100.00
2022-11-02T01:41:41.323Z,100.00
2022-11-02T01:44:44.199Z,100.00
2022-11-02T01:47:48.553Z,100.00
2022-11-02T01:50:50.211Z,100.00
2022-11-02T01:53:53.055Z,100.00
2022-11-02T01:57:01.702Z,100.00
2022-11-02T02:00:12.197Z,100.00
2022-11-02T02:03:18.986Z,100.00
2022-11-02T02:06:20.846Z,100.00
2022-11-02T02:09:23.493Z,100.00
2022-11-02T02:12:25.822Z,100.00
2022-11-02T02:15:39.400Z,100.00
2022-11-02T02:18:47.740Z,100.00
2022-11-02T02:22:05.494Z,100.00
2022-11-02T02:25:31.703Z,100.00
2022-11-02T02:28:57.049Z,100.00
2022-11-02T02:32:36.417Z,100.00
2022-11-02T02:35:49.271Z,100.00
2022-11-02T02:39:13.413Z,100.00
2022-11-02T02:42:21.779Z,100.00
2022-11-02T02:45:23.380Z,100.00
2022-11-02T02:48:25.776Z,100.00
2022-11-02T02:51:32.544Z,100.00
2022-11-02T02:54:42.648Z,100.00
2022-11-02T02:57:45.842Z,100.00
2022-11-02T03:00:47.962Z,100.00
2022-11-02T03:03:49.701Z,100.00
2022-11-02T03:06:58.138Z,100.00
2022-11-02T03:10:10.731Z,100.00
2022-11-02T03:13:21.108Z,100.00
2022-11-02T03:16:35.386Z,100.00
2022-11-02T03:19:42.627Z,100.00
2022-11-02T03:22:58.259Z,100.00
2022-11-02T03:26:11.305Z,100.00
2022-11-02T03:29:16.633Z,100.00
2022-11-02T03:32:39.100Z,100.00
2022-11-02T03:35:47.461Z,100.00
2022-11-02T03:38:53.657Z,100.00
2022-11-02T03:41:56.910Z,100.00
2022-11-02T03:45:07.860Z,100.00
2022-11-02T03:48:12.187Z,100.00
2022-11-02T03:51:16.150Z,100.00
2022-11-02T03:54:43.678Z,100.00
2022-11-02T03:57:47.870Z,100.00
2022-11-02T04:00:58.853Z,100.00
2022-11-02T04:04:00.569Z,100.00
2022-11-02T04:07:05.338Z,100.00
2022-11-02T04:10:07.397Z,100.00
2022-11-02T04:13:27.953Z,100.00
2022-11-02T04:16:29.634Z,100.00
2022-11-02T04:19:31.270Z,100.00
2022-11-02T04:22:51.830Z,100.00
2022-11-02T04:25:56.340Z,100.00
2022-11-02T04:28:58.084Z,100.00
2022-11-02T04:31:59.906Z,100.00
2022-11-02T04:35:02.197Z,100.00
2022-11-02T04:38:22.904Z,100.00
2022-11-02T04:41:43.567Z,100.00
2022-11-02T04:44:45.198Z,100.00
2022-11-02T04:47:46.799Z,100.00
2022-11-02T04:50:48.493Z,100.00
2022-11-02T04:53:50.655Z,100.00
2022-11-02T04:56:52.485Z,100.00
2022-11-02T04:59:54.140Z,100.00
2022-11-02T05:02:55.975Z,100.00
2022-11-02T05:05:57.675Z,100.00
2022-11-02T05:08:59.321Z,100.00
2022-11-02T05:12:02.025Z,100.00
2022-11-02T05:15:04.975Z,100.00
2022-11-02T05:18:07.111Z,100.00
2022-11-02T05:21:11.040Z,100.00
2022-11-02T05:24:12.686Z,100.00
2022-11-02T05:27:15.470Z,100.00
2022-11-02T05:30:17.179Z,100.00
2022-11-02T05:33:19.012Z,100.00
2022-11-02T05:36:20.735Z,100.00
2022-11-02T05:39:22.425Z,100.00
2022-11-02T05:42:26.012Z,100.00
2022-11-02T05:45:27.791Z,100.00
2022-11-02T05:48:32.430Z,100.00
2022-11-02T05:51:34.146Z,100.00
2022-11-02T05:54:36.058Z,100.00
2022-11-02T05:57:37.804Z,100.00
2022-11-02T06:00:40.523Z,100.00
2022-11-02T06:03:42.338Z,100.00
2022-11-02T06:06:44.163Z,100.00
2022-11-02T06:09:45.877Z,100.00
2022-11-02T06:12:47.575Z,100.00
2022-11-02T06:15:49.358Z,100.00
2022-11-02T06:18:51.964Z,100.00
2022-11-02T06:21:53.704Z,100.00
2022-11-02T06:24:55.348Z,100.00
2022-11-02T06:27:57.531Z,100.00
2022-11-02T06:30:59.244Z,100.00
2022-11-02T06:34:00.929Z,100.00
2022-11-02T06:37:02.735Z,100.00
2022-11-02T06:40:04.850Z,100.00
2022-11-02T06:43:22.993Z,100.00
2022-11-02T06:46:25.643Z,100.00
2022-11-02T06:49:27.313Z,100.00
2022-11-02T06:52:29.547Z,100.00
2022-11-02T06:55:31.552Z,100.00
2022-11-02T06:58:33.289Z,100.00
2022-11-02T07:01:35.420Z,100.00
2022-11-02T07:04:37.403Z,100.00
2022-11-02T07:07:39.395Z,100.00
2022-11-02T07:10:41.116Z,100.00
2022-11-02T07:13:43.434Z,100.00
2022-11-02T07:16:45.314Z,100.00
2022-11-02T07:19:47.035Z,100.00
2022-11-02T07:22:56.939Z,100.00
2022-11-02T07:26:01.621Z,100.00
2022-11-02T07:29:03.633Z,100.00
2022-11-02T07:32:07.738Z,100.00
2022-11-02T07:35:11.477Z,100.00
2022-11-02T07:38:13.596Z,100.00
2022-11-02T07:41:15.393Z,100.00
2022-11-02T07:44:17.073Z,100.00
2022-11-02T07:47:18.888Z,100.00
2022-11-02T07:50:23.225Z,100.00
2022-11-02T07:53:24.871Z,100.00
2022-11-02T07:56:26.625Z,100.00
2022-11-02T07:59:28.961Z,100.00
2022-11-02T08:02:30.767Z,100.00
2022-11-02T08:05:35.069Z,100.00
2022-11-02T08:08:37.152Z,100.00
2022-11-02T08:11:39.202Z,100.00
2022-11-02T08:14:40.950Z,100.00
2022-11-02T08:17:42.880Z,100.00
2022-11-02T08:20:46.364Z,100.00
2022-11-02T08:23:48.087Z,100.00
2022-11-02T08:26:53.904Z,100.00
2022-11-02T08:29:57.305Z,100.00
2022-11-02T08:33:13.308Z,99.86
2022-11-02T08:36:15.191Z,99.10
2022-11-02T08:39:19.069Z,97.84
2022-11-02T08:42:21.091Z,96.97
2022-11-02T08:45:22.793Z,96.39
2022-11-02T08:48:24.823Z,96.60
2022-11-02T08:51:26.410Z,95.71
2022-11-02T08:54:28.727Z,95.12
2022-11-02T08:57:30.425Z,95.53
2022-11-02T09:00:33.962Z,94.62
2022-11-02T09:03:35.837Z,94.43
2022-11-02T09:06:37.540Z,94.57
2022-11-02T09:09:39.309Z,93.61
2022-11-02T09:12:40.953Z,92.52
2022-11-02T09:15:59.558Z,91.84
2022-11-02T09:19:05.288Z,91.90
2022-11-02T09:22:07.213Z,92.01
2022-11-02T09:25:09.689Z,91.22
2022-11-02T09:28:13.290Z,90.89
2022-11-02T09:31:15.054Z,91.30
2022-11-02T09:34:17.028Z,89.93
2022-11-02T09:37:18.972Z,89.34
2022-11-02T09:40:23.351Z,90.88
2022-11-02T09:43:38.242Z,90.95
2022-11-02T09:46:43.562Z,90.03
2022-11-02T09:49:45.583Z,90.75
2022-11-02T09:52:52.284Z,88.77
2022-11-02T09:55:57.537Z,87.93
2022-11-02T09:59:23.358Z,88.08
2022-11-02T10:02:47.074Z,90.37
2022-11-02T10:06:04.565Z,87.64
2022-11-02T10:09:37.941Z,85.86
2022-11-02T10:12:55.489Z,86.81
2022-11-02T10:16:02.391Z,86.87
2022-11-02T10:19:10.131Z,86.87
2022-11-02T10:22:14.015Z,86.67
2022-11-02T10:25:16.612Z,86.30
2022-11-02T10:28:26.327Z,85.67
2022-11-02T10:31:33.401Z,87.25
2022-11-02T10:34:35.333Z,85.80
2022-11-02T10:38:16.604Z,85.94
2022-11-02T10:41:21.423Z,85.37
2022-11-02T10:44:59.175Z,83.32
2022-11-02T10:48:11.495Z,84.67
2022-11-02T10:51:14.822Z,83.59
2022-11-02T10:54:20.576Z,83.79
2022-11-02T10:57:28.158Z,84.43
2022-11-02T11:00:35.467Z,83.96
2022-11-02T11:04:01.482Z,85.62
2022-11-02T11:07:21.080Z,82.68
2022-11-02T11:10:23.759Z,80.86
2022-11-02T11:16:56.508Z,81.36
2022-11-02T11:20:02.741Z,80.58
2022-11-02T11:23:21.462Z,81.56
2022-11-02T11:26:28.463Z,79.95
2022-11-02T11:29:32.786Z,79.35
2022-11-02T11:32:35.569Z,80.25
2022-11-02T11:35:38.857Z,81.07
2022-11-02T11:38:47.135Z,81.86
2022-11-02T11:41:48.966Z,81.90
2022-11-02T11:45:03.067Z,82.05
2022-11-02T11:48:23.026Z,82.95
2022-11-02T11:51:34.246Z,83.46
2022-11-02T11:54:36.675Z,83.77
2022-11-02T12:00:45.167Z,82.89
2022-11-02T12:04:01.355Z,83.69
2022-11-02T12:07:09.455Z,85.06
2022-11-02T12:10:21.897Z,84.67
2022-11-02T12:13:45.558Z,84.97
2022-11-02T12:17:12.501Z,84.74
2022-11-02T12:20:38.498Z,84.47
2022-11-02T12:23:52.895Z,84.39
2022-11-02T12:27:15.808Z,84.04
2022-11-02T12:30:22.056Z,83.68
2022-11-02T12:33:35.353Z,83.31
2022-11-02T12:40:24.082Z,83.43
2022-11-02T12:43:39.428Z,83.43
2022-11-02T12:46:57.165Z,83.59
2022-11-02T12:50:01.892Z,83.23
2022-11-02T12:53:19.130Z,83.09
2022-11-02T12:56:26.539Z,82.69
2022-11-02T12:59:31.498Z,82.45
2022-11-02T13:02:45.269Z,82.11
2022-11-02T13:05:54.664Z,82.57
2022-11-02T13:09:09.253Z,82.70
2022-11-02T13:12:15.250Z,82.20
2022-11-02T13:15:20.153Z,82.21
2022-11-02T13:18:24.865Z,81.69
2022-11-02T13:21:44.165Z,81.74
2022-11-02T13:24:50.314Z,81.70
2022-11-02T13:27:54.892Z,82.07
2022-11-02T13:30:57.144Z,81.35
2022-11-02T13:34:02.414Z,82.00
2022-11-02T13:37:17.472Z,82.17
2022-11-02T13:40:26.490Z,82.30
2022-11-02T13:43:43.217Z,82.05
2022-11-02T13:46:59.895Z,81.82
2022-11-02T13:50:03.565Z,82.00
2022-11-02T13:53:08.933Z,81.74
2022-11-02T13:56:12.911Z,82.01
2022-11-02T13:59:24.237Z,82.26
2022-11-02T14:02:29.185Z,82.04
2022-11-02T14:05:33.212Z,81.94
2022-11-02T14:08:38.257Z,82.19
2022-11-02T14:11:40.258Z,82.43
2022-11-02T14:14:41.927Z,82.18
2022-11-02T14:17:56.509Z,82.21
2022-11-02T14:20:58.719Z,82.21
2022-11-02T14:24:00.733Z,82.37
2022-11-02T14:27:13.012Z,82.30
2022-11-02T14:30:33.671Z,82.41
2022-11-02T14:33:38.328Z,82.34
2022-11-02T14:37:01.143Z,82.41
2022-11-02T14:40:26.737Z,82.36
2022-11-02T14:43:50.007Z,82.39
2022-11-02T14:47:07.986Z,82.23
2022-11-02T14:50:12.635Z,82.24
2022-11-02T14:53:25.393Z,82.60
2022-11-02T14:57:06.620Z,82.62
2022-11-02T15:00:17.898Z,82.63
2022-11-02T15:03:25.754Z,82.55
2022-11-02T15:06:28.489Z,82.45
2022-11-02T15:09:59.269Z,82.62
2022-11-02T15:13:19.459Z,82.75
2022-11-02T15:16:22.563Z,83.00
2022-11-02T15:19:47.368Z,83.08
2022-11-02T15:22:52.830Z,83.28
2022-11-02T15:25:55.097Z,83.62
2022-11-02T15:28:59.131Z,83.96
2022-11-02T15:32:01.681Z,84.21
2022-11-02T15:35:04.146Z,84.47
2022-11-02T15:38:30.354Z,84.90
2022-11-02T15:41:45.012Z,84.73
2022-11-02T15:45:05.411Z,84.69
2022-11-02T15:48:22.260Z,84.90
2022-11-02T15:51:47.162Z,85.19
2022-11-02T15:55:10.597Z,85.54
2022-11-02T15:58:21.841Z,85.51
2022-11-02T16:01:25.593Z,85.60
2022-11-02T16:04:27.982Z,85.65
2022-11-02T16:07:43.585Z,85.96
2022-11-02T16:11:04.344Z,86.01
2022-11-02T16:14:17.331Z,86.28
2022-11-02T16:17:27.106Z,86.28
2022-11-02T16:20:31.936Z,86.40
2022-11-02T16:23:36.739Z,86.59
2022-11-02T16:26:38.550Z,86.76
2022-11-02T16:29:41.125Z,86.86
2022-11-02T16:32:43.123Z,86.83
2022-11-02T16:35:44.850Z,87.21
2022-11-02T16:38:54.525Z,87.16
2022-11-02T16:41:58.625Z,86.78
2022-11-02T16:45:01.278Z,87.05
2022-11-02T16:48:04.680Z,87.13
2022-11-02T16:51:18.171Z,87.20
2022-11-02T16:54:26.745Z,87.48
2022-11-02T16:57:31.334Z,87.59
2022-11-02T17:00:34.172Z,87.70
2022-11-02T17:03:35.939Z,88.16
2022-11-02T17:06:43.124Z,87.92
2022-11-02T17:09:54.061Z,87.95
2022-11-02T17:12:56.432Z,88.14
2022-11-02T17:16:04.723Z,88.33
2022-11-02T17:19:06.347Z,88.37
2022-11-02T17:22:29.344Z,88.62
2022-11-02T17:25:39.601Z,88.92
2022-11-02T17:28:44.908Z,89.08
2022-11-02T17:31:53.563Z,88.92
2022-11-02T17:34:57.033Z,88.93
2022-11-02T17:37:58.720Z,89.23
2022-11-02T17:41:00.911Z,89.31
2022-11-02T17:44:03.112Z,89.60
2022-11-02T17:47:16.040Z,89.75
2022-11-02T17:50:18.668Z,89.88
2022-11-02T17:53:20.621Z,89.91
2022-11-02T17:56:22.219Z,90.11
2022-11-02T17:59:23.855Z,90.30
2022-11-02T18:02:25.593Z,90.37
2022-11-02T18:05:28.690Z,90.32
2022-11-02T18:08:30.394Z,90.47
2022-11-02T18:11:32.173Z,90.62
2022-11-02T18:14:34.223Z,90.69
2022-11-02T18:17:35.802Z,90.81
2022-11-02T18:20:41.615Z,90.80
2022-11-02T18:23:44.723Z,91.04
2022-11-02T18:26:47.205Z,91.12
2022-11-02T18:29:49.005Z,91.14
2022-11-02T18:32:50.639Z,91.61
2022-11-02T18:35:52.318Z,92.01
2022-11-02T18:38:53.993Z,91.27
2022-11-02T18:41:55.577Z,90.76
2022-11-02T18:44:58.651Z,90.73
2022-11-02T18:48:00.330Z,90.68
2022-11-02T18:51:04.704Z,91.20
2022-11-02T18:54:06.533Z,91.13
2022-11-02T18:57:08.144Z,90.82
2022-11-02T19:00:10.270Z,90.95
2022-11-02T19:03:11.895Z,90.69
2022-11-02T19:06:32.493Z,90.59
2022-11-02T19:09:35.994Z,90.76
2022-11-02T19:12:37.929Z,90.76
2022-11-02T19:15:42.533Z,91.04
2022-11-02T19:18:44.777Z,91.25
2022-11-02T19:21:46.963Z,91.70
2022-11-02T19:24:50.113Z,91.80
2022-11-02T19:27:51.777Z,91.95
2022-11-02T19:30:53.421Z,92.03
2022-11-02T19:33:55.074Z,91.91
2022-11-02T19:36:56.726Z,91.91
2022-11-02T19:39:58.312Z,91.93
2022-11-02T19:43:00.022Z,92.83
2022-11-02T19:46:02.656Z,92.85
2022-11-02T19:49:04.263Z,92.26
2022-11-02T19:52:05.859Z,91.89
2022-11-02T19:55:07.861Z,91.98
2022-11-02T19:58:09.644Z,92.00
2022-11-02T20:01:13.909Z,92.24
2022-11-02T20:04:15.747Z,92.38
2022-11-02T20:07:17.451Z,92.73
2022-11-02T20:10:19.087Z,92.81
2022-11-02T20:13:20.674Z,92.87
2022-11-02T20:16:22.547Z,92.89
2022-11-02T20:19:24.157Z,93.04
2022-11-02T20:22:25.866Z,93.23
2022-11-02T20:25:27.654Z,93.35
2022-11-02T20:28:29.534Z,93.46
2022-11-02T20:31:34.072Z,93.32
2022-11-02T20:34:36.860Z,93.33
2022-11-02T20:37:38.479Z,93.17
2022-11-02T20:40:41.386Z,93.03
2022-11-02T20:43:45.501Z,93.04
2022-11-02T20:46:52.761Z,93.11
2022-11-02T20:49:55.154Z,93.24
2022-11-02T20:52:58.736Z,93.19
2022-11-02T20:56:00.940Z,93.26
2022-11-02T20:59:02.779Z,93.42
2022-11-02T21:02:04.550Z,93.56
2022-11-02T21:05:06.676Z,93.52
2022-11-02T21:08:08.325Z,93.79
2022-11-02T21:11:29.671Z,93.93
2022-11-02T21:14:31.462Z,94.00
2022-11-02T21:17:34.695Z,94.08
2022-11-02T21:20:36.810Z,93.86
2022-11-02T21:23:38.920Z,94.01
2022-11-02T21:26:40.535Z,93.88
2022-11-02T21:29:42.355Z,93.68
2022-11-02T21:32:44.017Z,93.43
2022-11-02T21:35:47.711Z,93.45
2022-11-02T21:38:49.472Z,93.66
2022-11-02T21:41:51.276Z,93.56
2022-11-02T21:44:52.888Z,93.75
2022-11-02T21:47:54.455Z,93.91
2022-11-02T21:51:13.185Z,93.56
2022-11-02T21:54:18.081Z,93.62
2022-11-02T21:57:20.867Z,94.01
2022-11-02T22:00:22.552Z,94.12
2022-11-02T22:03:24.307Z,94.18
2022-11-02T22:06:30.942Z,94.34
2022-11-02T22:09:33.571Z,94.53
2022-11-02T22:12:54.232Z,94.53
2022-11-02T22:15:55.955Z,94.39
2022-11-02T22:18:59.637Z,94.41
2022-11-02T22:22:01.416Z,94.27
2022-11-02T22:25:03.161Z,94.17
2022-11-02T22:28:04.975Z,93.90
2022-11-02T22:31:15.652Z,93.86
2022-11-02T22:34:17.368Z,93.92
2022-11-02T22:37:38.106Z,93.92
2022-11-02T22:40:39.688Z,94.07
2022-11-02T22:43:42.397Z,94.00
2022-11-02T22:46:46.580Z,94.02
2022-11-02T22:49:48.647Z,93.95
2022-11-02T22:52:50.214Z,94.08
2022-11-02T22:56:03.651Z,94.23
2022-11-02T22:59:06.091Z,94.35
2022-11-02T23:02:07.858Z,94.40
2022-11-02T23:05:09.975Z,94.23
2022-11-02T23:08:11.632Z,94.49
2022-11-02T23:11:21.340Z,94.53
2022-11-02T23:14:23.107Z,94.49
2022-11-02T23:17:25.044Z,94.59
2022-11-02T23:20:26.671Z,94.54
2022-11-02T23:23:46.992Z,94.62
2022-11-02T23:26:49.699Z,94.67
2022-11-02T23:30:10.063Z,94.76
2022-11-02T23:33:12.143Z,94.73
2022-11-02T23:36:15.472Z,94.93
2022-11-02T23:39:49.514Z,94.59
2022-11-02T23:42:51.288Z,94.63
2022-11-02T23:45:52.937Z,94.58
2022-11-02T23:48:54.552Z,94.82
2022-11-02T23:52:14.782Z,94.97
2022-11-02T23:55:39.386Z,94.90
2022-11-02T23:58:41.180Z,95.20
